Time;durP1;ratioP1;P1;durP2;ratioP2;P2;SDS_P1;SDS_P2;PMS_P1;PMS_P2;Temp;Humidity;BMP_temperature;BMP_pressure;BME280_temperature;BME280_humidity;BME280_pressure;Samples;Min_cycle;Max_cycle;Signal;HPM_P1;HPM_P2
2021/04/21 00:00:39;;;;;;;0.52;0.52;;;3.20;99.90;;;;;;5091198;28;20633;-78
2021/04/21 00:03:06;;;;;;;0.60;0.60;;;3.20;99.90;;;;;;5091644;28;20691;-78
2021/04/21 00:05:32;;;;;;;0.60;0.60;;;3.20;99.90;;;;;;5091613;28;20234;-78
2021/04/21 00:08:00;;;;;;;0.60;0.60;;;3.20;99.90;;;;;;5091246;28;20263;-78
2021/04/21 00:10:28;;;;;;;0.60;0.60;;;3.20;99.90;;;;;;5091473;28;20590;-78
2021/04/21 00:12:55;;;;;;;0.50;0.50;;;3.00;99.90;;;;;;5091530;28;20207;-78
2021/04/21 00:15:23;;;;;;;0.60;0.60;;;3.00;99.90;;;;;;5091064;28;20203;-78
2021/04/21 00:17:54;;;;;;;0.60;0.60;;;2.90;99.90;;;;;;5091132;28;20445;-78
2021/04/21 00:20:23;;;;;;;0.60;0.60;;;2.90;99.90;;;;;;5091361;28;20687;-78
2021/04/21 00:22:53;;;;;;;0.60;0.60;;;3.00;99.90;;;;;;5091146;28;20207;-78
2021/04/21 00:25:20;;;;;;;0.60;0.60;;;2.90;99.90;;;;;;5091061;28;20203;-79
2021/04/21 00:27:46;;;;;;;0.60;0.60;;;2.80;99.90;;;;;;5091045;28;20203;-78
2021/04/21 00:30:15;;;;;;;0.60;0.60;;;2.80;99.90;;;;;;5091060;28;20219;-78
2021/04/21 00:32:44;;;;;;;0.60;0.60;;;2.80;99.90;;;;;;5090634;28;20203;-78
2021/04/21 00:35:12;;;;;;;0.60;0.60;;;2.80;99.90;;;;;;5090590;28;20206;-78
2021/04/21 00:37:42;;;;;;;0.60;0.60;;;2.80;99.90;;;;;;5090762;28;20739;-78
2021/04/21 00:40:12;;;;;;;0.60;0.60;;;2.70;99.90;;;;;;5090909;28;20207;-78
2021/04/21 00:42:45;;;;;;;0.60;0.60;;;2.70;99.90;;;;;;5090571;28;20612;-78
2021/04/21 00:45:15;;;;;;;0.60;0.60;;;2.60;99.90;;;;;;5090803;28;20276;-78
2021/04/21 00:47:49;;;;;;;0.50;0.50;;;2.50;99.90;;;;;;5090316;28;20249;-78
2021/04/21 00:50:19;;;;;;;0.60;0.60;;;2.50;99.90;;;;;;5090424;28;20264;-78
2021/04/21 00:52:50;;;;;;;0.60;0.60;;;2.50;99.90;;;;;;5090171;28;20256;-78
2021/04/21 00:55:22;;;;;;;0.60;0.60;;;2.50;99.90;;;;;;5090352;28;20818;-78
2021/04/21 00:57:58;;;;;;;0.60;0.60;;;2.70;99.90;;;;;;5090217;28;20207;-78
2021/04/21 01:00:29;;;;;;;0.60;0.60;;;2.70;99.90;;;;;;5090106;28;20199;-78
2021/04/21 01:02:58;;;;;;;0.60;0.60;;;2.60;99.90;;;;;;5090189;28;20209;-78
2021/04/21 01:05:27;;;;;;;0.60;0.60;;;2.50;99.90;;;;;;5090418;28;20207;-78
2021/04/21 01:08:00;;;;;;;0.60;0.60;;;2.40;99.90;;;;;;5090429;28;20206;-78
2021/04/21 01:10:30;;;;;;;0.60;0.60;;;2.50;99.90;;;;;;5089455;28;20230;-78
2021/04/21 01:12:59;;;;;;;0.60;0.60;;;2.50;99.90;;;;;;5089855;28;20572;-79
2021/04/21 01:15:26;;;;;;;0.60;0.60;;;2.40;99.90;;;;;;5089853;28;20206;-79
2021/04/21 01:17:54;;;;;;;0.60;0.60;;;2.50;99.90;;;;;;5090078;28;20225;-79
2021/04/21 01:20:28;;;;;;;0.60;0.60;;;2.50;99.90;;;;;;5089982;28;20195;-79
2021/04/21 01:23:15;;;;;;;0.60;0.60;;;2.60;99.90;;;;;;5089950;28;20657;-79
2021/04/21 01:25:53;;;;;;;0.60;0.60;;;2.50;99.90;;;;;;5089659;28;20302;-79
2021/04/21 01:28:23;;;;;;;0.60;0.60;;;2.50;99.90;;;;;;5090106;28;20203;-79
2021/04/21 01:30:51;;;;;;;0.60;0.60;;;2.70;99.90;;;;;;5089874;28;20271;-79
2021/04/21 01:33:20;;;;;;;0.60;0.60;;;2.70;99.90;;;;;;5089797;28;20608;-79
2021/04/21 01:35:59;;;;;;;0.60;0.60;;;2.50;99.90;;;;;;5089544;28;20203;-80
2021/04/21 01:38:27;;;;;;;0.60;0.60;;;2.30;99.90;;;;;;5089581;28;20203;-80
2021/04/21 01:40:57;;;;;;;0.60;0.60;;;2.20;99.90;;;;;;5089455;28;20209;-78
2021/04/21 01:43:32;;;;;;;0.60;0.60;;;2.10;99.90;;;;;;5089812;28;20206;-78
2021/04/21 01:46:01;;;;;;;0.60;0.60;;;2.00;99.90;;;;;;5089480;28;20214;-78
2021/04/21 01:48:29;;;;;;;0.60;0.60;;;2.00;99.90;;;;;;5089650;28;20247;-78
2021/04/21 01:50:58;;;;;;;0.60;0.60;;;2.00;99.90;;;;;;5089264;28;20292;-78
2021/04/21 01:53:33;;;;;;;0.60;0.60;;;2.00;99.90;;;;;;5089386;28;20210;-78
2021/04/21 01:56:07;;;;;;;0.60;0.60;;;2.00;99.90;;;;;;5089298;28;20208;-78
2021/04/21 01:59:02;;;;;;;0.60;0.60;;;1.90;99.90;;;;;;5089415;28;20202;-78
2021/04/21 02:01:39;;;;;;;0.60;0.60;;;1.90;99.90;;;;;;5087721;28;20202;-78
2021/04/21 02:04:12;;;;;;;0.60;0.60;;;2.00;99.90;;;;;;5089932;28;20199;-78
2021/04/21 02:07:01;;;;;;;0.60;0.60;;;1.90;99.90;;;;;;5089604;28;20608;-78
2021/04/21 02:09:53;;;;;;;0.60;0.60;;;1.80;99.90;;;;;;5089622;28;20210;-78
2021/04/21 02:12:39;;;;;;;0.60;0.60;;;1.80;99.90;;;;;;5089151;28;20230;-78
2021/04/21 02:15:13;;;;;;;0.57;0.57;;;1.70;99.90;;;;;;5089694;28;20195;-78
2021/04/21 02:17:50;;;;;;;0.60;0.60;;;1.70;99.90;;;;;;5089618;28;20259;-78
2021/04/21 02:20:27;;;;;;;0.60;0.60;;;1.70;99.90;;;;;;5090032;28;20395;-79
2021/04/21 02:23:00;;;;;;;0.60;0.60;;;1.70;99.90;;;;;;5093092;28;20203;-79
2021/04/21 02:25:38;;;;;;;0.60;0.60;;;1.70;99.90;;;;;;5093186;28;20297;-79
2021/04/21 02:28:16;;;;;;;0.60;0.60;;;1.70;99.90;;;;;;5093414;28;20202;-79
2021/04/21 02:30:47;;;;;;;0.60;0.60;;;1.60;99.90;;;;;;5093225;28;20226;-79
2021/04/21 02:33:19;;;;;;;0.60;0.60;;;1.50;99.90;;;;;;5093418;28;20207;-79
2021/04/21 02:35:50;;;;;;;0.60;0.60;;;1.40;99.90;;;;;;5093285;28;20264;-79
2021/04/21 02:38:24;;;;;;;0.60;0.60;;;1.40;99.90;;;;;;5093143;28;20673;-79
2021/04/21 02:41:00;;;;;;;0.60;0.60;;;1.40;99.90;;;;;;5093067;28;20252;-78
2021/04/21 02:43:36;;;;;;;0.60;0.60;;;1.40;99.90;;;;;;5093240;28;20202;-78
2021/04/21 02:46:07;;;;;;;0.60;0.60;;;1.50;99.90;;;;;;5092864;28;20214;-78
2021/04/21 02:48:43;;;;;;;0.60;0.60;;;1.90;99.90;;;;;;5092968;28;20234;-78
2021/04/21 02:51:16;;;;;;;0.60;0.60;;;1.90;99.90;;;;;;5092554;28;20692;-79
2021/04/21 02:53:47;;;;;;;0.60;0.60;;;1.80;99.90;;;;;;5092668;28;20203;-78
2021/04/21 02:56:22;;;;;;;0.60;0.60;;;1.90;99.90;;;;;;5092707;28;20199;-79
2021/04/21 02:58:58;;;;;;;0.60;0.60;;;1.80;99.90;;;;;;5092706;28;20199;-79
2021/04/21 03:01:41;;;;;;;0.60;0.60;;;1.70;99.90;;;;;;5092467;28;20577;-79
2021/04/21 03:04:18;;;;;;;0.60;0.60;;;1.60;99.90;;;;;;5092746;28;20573;-79
2021/04/21 03:06:48;;;;;;;0.60;0.60;;;1.60;99.90;;;;;;5092333;28;20199;-78
2021/04/21 03:09:18;;;;;;;0.60;0.60;;;1.50;99.90;;;;;;5093061;28;20567;-79
2021/04/21 03:11:46;;;;;;;0.60;0.60;;;1.40;99.90;;;;;;5092548;28;20219;-78
2021/04/21 03:14:18;;;;;;;0.60;0.60;;;1.30;99.90;;;;;;5092425;28;20203;-79
2021/04/21 03:16:52;;;;;;;0.60;0.60;;;1.20;99.90;;;;;;5092205;28;20203;-79
2021/04/21 03:19:21;;;;;;;0.60;0.60;;;1.20;99.90;;;;;;5092233;28;20210;-79
2021/04/21 03:21:52;;;;;;;0.60;0.60;;;1.10;99.90;;;;;;5092107;28;20202;-79
2021/04/21 03:24:22;;;;;;;0.60;0.60;;;1.10;99.90;;;;;;5092108;28;20256;-79
2021/04/21 03:26:52;;;;;;;0.60;0.60;;;1.10;99.90;;;;;;5092132;28;20230;-79
2021/04/21 03:29:25;;;;;;;0.60;0.60;;;1.00;99.90;;;;;;5092306;28;20209;-79
2021/04/21 03:31:54;;;;;;;0.60;0.60;;;1.00;99.90;;;;;;5091223;28;20219;-79
2021/04/21 03:34:22;;;;;;;0.60;0.60;;;1.00;99.90;;;;;;5092043;28;20202;-79
2021/04/21 03:36:50;;;;;;;0.60;0.60;;;1.10;99.90;;;;;;5091690;28;20210;-81
2021/04/21 03:39:16;;;;;;;0.60;0.60;;;1.10;99.90;;;;;;5092149;28;20742;-82
2021/04/21 03:41:43;;;;;;;0.60;0.60;;;1.10;99.90;;;;;;5091805;28;20199;-81
2021/04/21 03:44:10;;;;;;;0.60;0.60;;;1.10;99.90;;;;;;5091785;28;20543;-81
2021/04/21 03:46:37;;;;;;;0.60;0.60;;;1.10;99.90;;;;;;5092035;28;20203;-82
2021/04/21 03:49:07;;;;;;;0.60;0.60;;;1.10;99.90;;;;;;5091546;28;20206;-81
2021/04/21 03:51:35;;;;;;;0.60;0.60;;;1.20;99.90;;;;;;5091395;28;20281;-81
2021/04/21 03:54:02;;;;;;;0.60;0.60;;;1.20;99.90;;;;;;5091644;28;20268;-81
2021/04/21 03:56:30;;;;;;;0.60;0.60;;;1.20;99.90;;;;;;5091742;28;20248;-81
2021/04/21 03:58:58;;;;;;;0.60;0.60;;;1.20;99.90;;;;;;5091328;28;20268;-81
2021/04/21 04:01:26;;;;;;;0.60;0.60;;;1.20;99.90;;;;;;5091409;28;20684;-81
2021/04/21 04:03:55;;;;;;;0.60;0.60;;;1.20;99.90;;;;;;5091569;28;20203;-81
2021/04/21 04:06:24;;;;;;;0.60;0.60;;;1.20;99.90;;;;;;5091611;28;20199;-81
2021/04/21 04:08:53;;;;;;;0.60;0.60;;;1.20;99.90;;;;;;5091133;28;20203;-81
2021/04/21 04:11:26;;;;;;;0.60;0.60;;;1.30;99.90;;;;;;5091136;28;20272;-81
2021/04/21 04:13:57;;;;;;;0.60;0.60;;;1.20;99.90;;;;;;5091142;28;20268;-81
2021/04/21 04:16:24;;;;;;;0.50;0.50;;;1.20;99.90;;;;;;5091453;28;20260;-81
2021/04/21 04:18:53;;;;;;;0.60;0.60;;;1.20;99.90;;;;;;5091313;28;20268;-80
2021/04/21 04:21:20;;;;;;;0.60;0.60;;;1.10;99.90;;;;;;5090894;28;20665;-80
2021/04/21 04:23:51;;;;;;;0.60;0.60;;;2.00;99.90;;;;;;5091124;28;20203;-80
2021/04/21 04:26:19;;;;;;;0.60;0.60;;;1.10;99.90;;;;;;5091092;28;20238;-80
2021/04/21 04:28:46;;;;;;;0.60;0.60;;;1.00;99.90;;;;;;5091072;28;20249;-80
2021/04/21 04:31:15;;;;;;;0.60;0.60;;;1.00;99.90;;;;;;5090637;28;20473;-80
2021/04/21 04:33:45;;;;;;;0.60;0.60;;;1.10;99.90;;;;;;5090929;28;20217;-80
2021/04/21 04:36:11;;;;;;;0.60;0.60;;;1.10;99.90;;;;;;5091085;28;20203;-80
2021/04/21 04:38:39;;;;;;;0.60;0.60;;;1.10;99.90;;;;;;5090771;28;20221;-80
2021/04/21 04:41:06;;;;;;;0.55;0.55;;;1.10;99.90;;;;;;5090760;28;20198;-80
2021/04/21 04:43:35;;;;;;;0.50;0.50;;;1.20;99.90;;;;;;5090900;28;20681;-80
2021/04/21 04:46:04;;;;;;;0.60;0.60;;;1.10;99.90;;;;;;5090794;28;20203;-80
2021/04/21 04:48:36;;;;;;;0.60;0.60;;;1.20;99.90;;;;;;5090377;28;20305;-80
2021/04/21 04:51:06;;;;;;;0.60;0.60;;;1.20;99.90;;;;;;5090231;28;20222;-80
2021/04/21 04:53:36;;;;;;;0.60;0.60;;;1.40;99.90;;;;;;5090450;28;20202;-81
2021/04/21 04:56:05;;;;;;;0.60;0.60;;;1.50;99.90;;;;;;5090462;28;20214;-80
2021/04/21 04:58:36;;;;;;;0.60;0.60;;;1.60;99.90;;;;;;5090962;28;20207;-80
2021/04/21 05:01:05;;;;;;;0.50;0.50;;;1.60;99.90;;;;;;5090258;28;20198;-80
2021/04/21 05:03:35;;;;;;;0.60;0.60;;;1.80;99.90;;;;;;5090233;28;20268;-80
2021/04/21 05:06:03;;;;;;;0.60;0.60;;;2.40;99.90;;;;;;5089923;28;20673;-80
2021/04/21 05:08:39;;;;;;;0.60;0.60;;;3.60;99.90;;;;;;5090370;28;20234;-79
2021/04/21 05:11:08;;;;;;;0.50;0.50;;;4.80;99.90;;;;;;5089871;28;20225;-81
2021/04/21 05:13:40;;;;;;;0.57;0.57;;;6.00;99.90;;;;;;5090290;28;20629;-81
2021/04/21 05:16:54;;;;;;;0.60;0.60;;;7.00;99.90;;;;;;5090219;28;20248;-81
2021/04/21 05:20:00;;;;;;;0.60;0.60;;;7.70;99.90;;;;;;5090037;28;20218;-81
2021/04/21 05:23:02;;;;;;;0.60;0.60;;;8.30;99.90;;;;;;5072172;28;20206;-81
2021/04/21 05:26:10;;;;;;;0.60;0.60;;;8.80;99.90;;;;;;5087432;28;20217;-81
2021/04/21 05:29:06;;;;;;;0.57;0.57;;;9.20;99.90;;;;;;5084806;28;20203;-81
2021/04/21 05:32:06;;;;;;;0.60;0.60;;;9.90;99.90;;;;;;5089651;28;20678;-81
2021/04/21 05:35:11;;;;;;;0.57;0.57;;;10.30;99.90;;;;;;5090101;28;20264;-81
2021/04/21 05:38:22;;;;;;;0.57;0.57;;;10.80;99.90;;;;;;5038874;28;20213;-79
2021/04/21 05:41:12;;;;;;;0.60;0.60;;;11.20;99.90;;;;;;5089838;28;20691;-78
2021/04/21 05:44:18;;;;;;;0.60;0.60;;;11.30;99.90;;;;;;5090072;28;20202;-79
2021/04/21 05:47:22;;;;;;;0.60;0.60;;;10.80;99.90;;;;;;5089836;28;20203;-80
2021/04/21 05:50:22;;;;;;;0.57;0.57;;;9.50;99.90;;;;;;5089797;28;20207;-79
2021/04/21 05:53:22;;;;;;;0.60;0.60;;;8.70;99.90;;;;;;5086851;28;20206;-79
2021/04/21 05:56:07;;;;;;;0.60;0.60;;;8.20;99.90;;;;;;5063285;28;20215;-80
2021/04/21 05:58:48;;;;;;;0.60;0.60;;;8.10;99.90;;;;;;5089491;28;20221;-82
2021/04/21 06:01:34;;;;;;;0.60;0.60;;;8.00;99.90;;;;;;5089501;28;20226;-80
2021/04/21 06:04:02;;;;;;;0.55;0.55;;;8.10;99.90;;;;;;5089542;28;20207;-81
2021/04/21 06:06:29;;;;;;;0.60;0.60;;;8.10;99.90;;;;;;5089373;28;20202;-81
2021/04/21 06:08:55;;;;;;;0.60;0.60;;;8.10;99.90;;;;;;5089255;28;20206;-81
2021/04/21 06:11:25;;;;;;;0.60;0.60;;;8.10;99.90;;;;;;5089358;28;20215;-81
2021/04/21 06:13:56;;;;;;;0.60;0.60;;;8.20;99.90;;;;;;5089529;28;20206;-81
2021/04/21 06:16:26;;;;;;;0.50;0.50;;;8.20;99.90;;;;;;5089390;28;20202;-79
2021/04/21 06:18:54;;;;;;;0.60;0.60;;;8.20;99.90;;;;;;5089156;28;20218;-79
2021/04/21 06:21:24;;;;;;;0.60;0.60;;;8.20;99.90;;;;;;5089333;28;20206;-79
2021/04/21 06:23:52;;;;;;;0.60;0.60;;;8.20;99.90;;;;;;5089546;28;20206;-81
2021/04/21 06:26:21;;;;;;;0.60;0.60;;;8.30;99.90;;;;;;5089259;28;20223;-83
2021/04/21 06:29:03;;;;;;;0.60;0.60;;;8.30;99.90;;;;;;5089039;28;20210;-81
2021/04/21 06:31:35;;;;;;;0.60;0.60;;;8.20;99.90;;;;;;5087912;28;20226;-80
2021/04/21 06:34:01;;;;;;;0.60;0.60;;;8.20;99.90;;;;;;5089746;28;20198;-82
2021/04/21 06:36:34;;;;;;;0.60;0.60;;;8.20;99.90;;;;;;5104127;28;20210;-82
2021/04/21 06:39:00;;;;;;;0.60;0.60;;;8.20;99.90;;;;;;5109461;28;20203;-81
2021/04/21 06:41:27;;;;;;;0.60;0.60;;;8.20;99.90;;;;;;5110022;28;20226;-81
2021/04/21 06:43:55;;;;;;;0.60;0.60;;;8.20;99.90;;;;;;5109931;28;20202;-81
2021/04/21 06:46:21;;;;;;;0.60;0.60;;;8.20;99.90;;;;;;5109477;28;20203;-81
2021/04/21 06:48:52;;;;;;;0.60;0.60;;;8.30;99.90;;;;;;5109777;28;20712;-81
2021/04/21 06:51:19;;;;;;;0.50;0.50;;;8.30;99.90;;;;;;5109729;28;20573;-81
2021/04/21 06:53:48;;;;;;;0.60;0.60;;;8.40;99.90;;;;;;5109564;28;20206;-81
2021/04/21 06:56:15;;;;;;;0.60;0.60;;;8.40;99.90;;;;;;5109596;28;20210;-81
2021/04/21 06:58:41;;;;;;;0.60;0.60;;;8.50;99.90;;;;;;5109747;28;20210;-81
2021/04/21 07:01:08;;;;;;;0.60;0.60;;;8.50;99.90;;;;;;5109545;28;20209;-81
2021/04/21 07:03:35;;;;;;;0.60;0.60;;;8.50;99.90;;;;;;5109658;28;20202;-81
2021/04/21 07:06:01;;;;;;;0.60;0.60;;;8.60;99.90;;;;;;5109626;28;20263;-81
2021/04/21 07:08:30;;;;;;;0.50;0.50;;;8.70;99.90;;;;;;5111768;28;20194;-81
2021/04/21 07:10:58;;;;;;;0.55;0.55;;;8.70;99.90;;;;;;5113374;28;20619;-81
2021/04/21 07:13:26;;;;;;;0.60;0.60;;;8.80;99.90;;;;;;5113163;28;20609;-81
2021/04/21 07:15:54;;;;;;;0.60;0.60;;;8.80;99.90;;;;;;5113065;28;20300;-81
2021/04/21 07:18:24;;;;;;;0.50;0.50;;;8.80;99.90;;;;;;5112869;28;20203;-81
2021/04/21 07:20:51;;;;;;;0.50;0.50;;;8.90;99.90;;;;;;5113045;28;20198;-81
2021/04/21 07:23:20;;;;;;;0.50;0.50;;;8.90;99.90;;;;;;5113072;28;20210;-81
2021/04/21 07:25:48;;;;;;;0.60;0.60;;;8.90;99.90;;;;;;5112870;28;20218;-81
2021/04/21 07:28:16;;;;;;;0.60;0.60;;;9.10;99.90;;;;;;5112940;28;20202;-83
2021/04/21 07:30:42;;;;;;;0.60;0.60;;;9.30;99.90;;;;;;5113198;28;20198;-83
2021/04/21 07:33:10;;;;;;;0.60;0.60;;;9.30;99.90;;;;;;5112333;28;20289;-82
2021/04/21 07:35:39;;;;;;;0.60;0.60;;;9.50;99.90;;;;;;5113177;28;20335;-84
2021/04/21 07:38:17;;;;;;;0.60;0.60;;;11.90;99.90;;;;;;5113091;28;20203;-84
2021/04/21 07:40:50;;;;;;;0.60;0.60;;;9.70;99.90;;;;;;5112797;28;20482;-85
2021/04/21 07:43:19;;;;;;;0.57;0.57;;;9.70;99.90;;;;;;5086187;27;20278;-84
2021/04/21 07:45:54;;;;;;;0.60;0.60;;;9.90;99.90;;;;;;5104355;27;20293;-84
2021/04/21 07:48:42;;;;;;;0.60;0.60;;;10.00;99.90;;;;;;5107623;27;20239;-84
2021/04/21 07:51:31;;;;;;;0.50;0.50;;;10.10;99.90;;;;;;5106410;27;20222;-85
2021/04/21 07:54:02;;;;;;;0.60;0.60;;;10.20;99.90;;;;;;5102510;27;20205;-88
2021/04/21 07:56:35;;;;;;;0.60;0.60;;;10.30;99.90;;;;;;5132515;27;20752;-83
2021/04/21 07:59:17;;;;;;;0.60;0.60;;;10.50;99.90;;;;;;5131936;27;20247;-86
2021/04/21 08:01:43;;;;;;;0.60;0.60;;;10.70;99.90;;;;;;5125074;27;20662;-85
2021/04/21 08:04:15;;;;;;;0.60;0.60;;;10.80;99.90;;;;;;5118743;27;20231;-86
2021/04/21 08:06:46;;;;;;;0.50;0.50;;;10.90;99.90;;;;;;5132986;27;20308;-84
2021/04/21 08:09:12;;;;;;;0.60;0.60;;;11.00;99.90;;;;;;5132230;27;20270;-83
2021/04/21 08:11:39;;;;;;;0.52;0.52;;;11.10;99.90;;;;;;5133109;27;20225;-88
2021/04/21 08:14:05;;;;;;;0.52;0.52;;;11.20;99.90;;;;;;5131028;27;20655;-84
2021/04/21 08:16:35;;;;;;;0.60;0.60;;;11.30;99.90;;;;;;5128646;27;20278;-85
2021/04/21 08:19:11;;;;;;;0.52;0.52;;;11.30;99.90;;;;;;5131512;27;20213;-84
2021/04/21 08:21:39;;;;;;;0.60;0.60;;;11.20;99.90;;;;;;5131975;27;20197;-83
2021/04/21 08:24:07;;;;;;;0.50;0.50;;;11.30;99.90;;;;;;5131776;27;20200;-82
2021/04/21 08:26:33;;;;;;;0.60;0.60;;;11.40;99.90;;;;;;5131796;27;20290;-81
2021/04/21 08:29:00;;;;;;;0.60;0.60;;;11.40;99.90;;;;;;5131139;27;20208;-80
2021/04/21 08:31:28;;;;;;;0.60;0.60;;;10.50;99.90;;;;;;5131376;27;20222;-79
2021/04/21 08:34:02;;;;;;;0.57;0.57;;;11.60;99.90;;;;;;5132020;27;20200;-78
2021/04/21 08:36:28;;;;;;;0.60;0.60;;;11.60;99.90;;;;;;5131853;27;20205;-79
2021/04/21 08:38:54;;;;;;;0.60;0.60;;;11.90;99.90;;;;;;5131144;27;20206;-79
2021/04/21 08:41:21;;;;;;;0.60;0.60;;;11.90;99.90;;;;;;5131328;27;20197;-78
2021/04/21 08:43:49;;;;;;;0.60;0.60;;;11.80;99.90;;;;;;5097910;27;20254;-78
2021/04/21 08:46:18;;;;;;;0.60;0.60;;;12.00;99.90;;;;;;5131023;27;20204;-78
2021/04/21 08:48:45;;;;;;;0.60;0.60;;;12.20;99.90;;;;;;5131441;27;20279;-78
2021/04/21 08:51:14;;;;;;;0.60;0.60;;;12.30;99.90;;;;;;5131508;27;20225;-78
2021/04/21 08:53:45;;;;;;;0.60;0.60;;;12.40;99.90;;;;;;5131463;27;20206;-78
2021/04/21 08:56:16;;;;;;;0.60;0.60;;;12.40;99.90;;;;;;5130796;27;20211;-78
2021/04/21 08:58:44;;;;;;;0.60;0.60;;;12.60;99.90;;;;;;5130004;27;20205;-78
2021/04/21 09:01:12;;;;;;;0.60;0.60;;;12.70;99.90;;;;;;5131026;27;20198;-81
2021/04/21 09:03:39;;;;;;;0.57;0.57;;;12.80;99.90;;;;;;5131154;27;20202;-77
2021/04/21 09:06:05;;;;;;;0.60;0.60;;;12.90;99.90;;;;;;5131307;27;20198;-77
2021/04/21 09:08:33;;;;;;;0.60;0.60;;;12.80;99.90;;;;;;5126483;27;20205;-77
2021/04/21 09:10:59;;;;;;;0.60;0.60;;;12.90;99.90;;;;;;5123569;27;20537;-77
2021/04/21 09:13:25;;;;;;;0.60;0.60;;;12.80;99.90;;;;;;5109456;27;20206;-77
2021/04/21 09:15:52;;;;;;;0.60;0.60;;;12.90;99.90;;;;;;5130557;27;20193;-77
2021/04/21 09:18:24;;;;;;;0.60;0.60;;;12.80;99.90;;;;;;5129620;27;20201;-77
2021/04/21 09:20:51;;;;;;;0.60;0.60;;;12.80;99.90;;;;;;5129944;27;20201;-77
2021/04/21 09:23:19;;;;;;;0.60;0.60;;;12.80;99.90;;;;;;5129114;27;20217;-77
2021/04/21 09:25:48;;;;;;;0.60;0.60;;;12.80;99.90;;;;;;5130151;27;20221;-77
2021/04/21 09:28:14;;;;;;;0.60;0.60;;;13.00;99.90;;;;;;5121957;27;20206;-77
2021/04/21 09:30:44;;;;;;;0.60;0.60;;;13.20;99.90;;;;;;5129375;27;20690;-77
2021/04/21 09:33:11;;;;;;;0.60;0.60;;;13.30;99.90;;;;;;5129550;27;20201;-77
2021/04/21 09:35:40;;;;;;;0.60;0.60;;;13.40;99.90;;;;;;5129911;27;20282;-77
2021/04/21 09:38:09;;;;;;;0.60;0.60;;;13.50;99.90;;;;;;5128812;27;20231;-77
2021/04/21 09:40:37;;;;;;;0.55;0.55;;;13.50;99.90;;;;;;5129447;27;20294;-77
2021/04/21 09:43:06;;;;;;;0.60;0.60;;;13.30;99.90;;;;;;5127400;27;20272;-77
2021/04/21 09:45:34;;;;;;;0.60;0.60;;;13.10;99.90;;;;;;5128123;27;20216;-77
2021/04/21 09:48:09;;;;;;;0.60;0.60;;;13.00;99.90;;;;;;5129502;27;20225;-77
2021/04/21 09:50:37;;;;;;;0.60;0.60;;;13.00;99.90;;;;;;5129305;27;20706;-77
2021/04/21 09:53:18;;;;;;;0.60;0.60;;;13.30;99.90;;;;;;5129099;27;20704;-77
2021/04/21 09:56:04;;;;;;;0.60;0.60;;;13.30;99.90;;;;;;5130047;27;20208;-78
2021/04/21 09:58:34;;;;;;;0.60;0.60;;;13.40;99.90;;;;;;5128391;27;20197;-77
2021/04/21 10:01:00;;;;;;;0.60;0.60;;;13.50;99.90;;;;;;5129739;27;20209;-77
2021/04/21 10:03:26;;;;;;;0.60;0.60;;;13.60;99.90;;;;;;5128954;27;20209;-77
2021/04/21 10:05:52;;;;;;;0.60;0.60;;;13.60;99.90;;;;;;5129711;27;20205;-77
2021/04/21 10:08:21;;;;;;;0.60;0.60;;;13.40;99.90;;;;;;5129238;27;20580;-77
2021/04/21 10:10:59;;;;;;;0.60;0.60;;;13.10;99.90;;;;;;5129368;27;20300;-77
2021/04/21 10:13:26;;;;;;;0.60;0.60;;;13.00;99.90;;;;;;5128010;27;20256;-77
2021/04/21 10:15:53;;;;;;;0.60;0.60;;;13.10;99.90;;;;;;5129787;27;20217;-77
2021/04/21 10:18:19;;;;;;;0.60;0.60;;;13.10;99.90;;;;;;5128888;27;20208;-77
2021/04/21 10:20:46;;;;;;;0.60;0.60;;;13.20;99.90;;;;;;5129347;27;20217;-77
2021/04/21 10:23:13;;;;;;;0.60;0.60;;;13.20;99.90;;;;;;5128859;27;20208;-78
2021/04/21 10:25:40;;;;;;;0.60;0.60;;;13.20;99.90;;;;;;5128704;27;21123;-77
2021/04/21 10:28:07;;;;;;;0.52;0.52;;;13.00;99.90;;;;;;5126859;27;20194;-80
2021/04/21 10:30:33;;;;;;;0.60;0.60;;;12.80;99.90;;;;;;5129278;27;20198;-80
2021/04/21 10:33:01;;;;;;;0.60;0.60;;;12.80;99.90;;;;;;5128881;27;20221;-79
2021/04/21 10:35:28;;;;;;;0.60;0.60;;;13.10;99.90;;;;;;5128018;27;20212;-79
2021/04/21 10:37:54;;;;;;;0.60;0.60;;;13.30;99.90;;;;;;5114659;27;20198;-83
2021/04/21 10:40:26;;;;;;;0.60;0.60;;;13.40;99.90;;;;;;5121100;27;20206;-79
2021/04/21 10:42:55;;;;;;;0.60;0.60;;;13.50;99.90;;;;;;5124256;27;20472;-79
2021/04/21 10:45:25;;;;;;;0.60;0.60;;;13.50;99.90;;;;;;5128714;27;20206;-79
2021/04/21 10:47:53;;;;;;;0.60;0.60;;;13.50;99.90;;;;;;5132034;27;20229;-78
2021/04/21 10:50:41;;;;;;;0.60;0.60;;;13.60;99.90;;;;;;5120818;27;20589;-79
2021/04/21 10:53:20;;;;;;;0.60;0.60;;;13.20;99.90;;;;;;5132603;27;20252;-78
2021/04/21 10:55:46;;;;;;;0.60;0.60;;;13.20;99.90;;;;;;5133282;27;20206;-78
2021/04/21 10:58:13;;;;;;;0.60;0.60;;;13.10;99.90;;;;;;5132275;27;20217;-79
2021/04/21 11:00:46;;;;;;;0.60;0.60;;;12.80;99.90;;;;;;5132798;27;20702;-78
2021/04/21 11:03:14;;;;;;;0.60;0.60;;;12.60;99.90;;;;;;5132715;27;20230;-79
2021/04/21 11:05:51;;;;;;;0.60;0.60;;;13.20;99.90;;;;;;5131361;27;20202;-78
2021/04/21 11:08:20;;;;;;;0.60;0.60;;;13.70;99.90;;;;;;5132656;27;20213;-78
2021/04/21 11:10:52;;;;;;;0.55;0.55;;;13.80;99.90;;;;;;5133361;27;20201;-78
2021/04/21 11:13:37;;;;;;;0.60;0.60;;;14.10;99.90;;;;;;5132551;27;20225;-78
2021/04/21 11:16:05;;;;;;;0.60;0.60;;;13.60;99.90;;;;;;5133678;27;20329;-78
2021/04/21 11:18:32;;;;;;;0.57;0.57;;;13.50;99.90;;;;;;5133469;27;20212;-79
2021/04/21 11:21:02;;;;;;;0.50;0.50;;;13.50;99.90;;;;;;5133649;27;20206;-81
2021/04/21 11:24:10;;;;;;;0.60;0.60;;;13.70;99.90;;;;;;5132654;27;20254;-81
2021/04/21 11:26:42;;;;;;;0.60;0.60;;;13.50;99.90;;;;;;5067260;28;20227;-81
2021/04/21 11:29:14;;;;;;;0.60;0.60;;;13.30;99.90;;;;;;5068738;28;20341;-80
2021/04/21 11:32:12;;;;;;;0.60;0.60;;;13.10;99.90;;;;;;5105932;27;20873;-79
2021/04/21 11:34:40;;;;;;;0.60;0.60;;;12.80;99.90;;;;;;5132922;27;20202;-80
2021/04/21 11:37:14;;;;;;;0.60;0.60;;;12.70;99.90;;;;;;5133187;27;20206;-80
2021/04/21 11:40:06;;;;;;;0.60;0.60;;;12.70;99.90;;;;;;5132060;27;20212;-79
2021/04/21 11:42:39;;;;;;;0.60;0.60;;;12.90;99.90;;;;;;5131488;27;20603;-80
2021/04/21 11:45:33;;;;;;;0.60;0.60;;;12.80;99.90;;;;;;5133199;27;20202;-80
2021/04/21 11:48:19;;;;;;;0.60;0.60;;;12.80;99.90;;;;;;5121896;27;20286;-80
2021/04/21 11:50:48;;;;;;;0.52;0.52;;;12.50;99.90;;;;;;5119818;27;20209;-80
2021/04/21 11:53:17;;;;;;;0.50;0.50;;;12.50;99.90;;;;;;5117169;27;20218;-79
2021/04/21 11:55:52;;;;;;;0.60;0.60;;;12.10;99.90;;;;;;5124942;27;20205;-79
2021/04/21 11:58:20;;;;;;;0.60;0.60;;;11.90;99.90;;;;;;5126203;27;20663;-79
2021/04/21 12:00:48;;;;;;;0.60;0.60;;;12.00;99.90;;;;;;5117336;27;20224;-79
2021/04/21 12:03:16;;;;;;;0.60;0.60;;;12.00;99.90;;;;;;5124516;27;20205;-80
2021/04/21 12:05:44;;;;;;;0.50;0.50;;;11.90;99.90;;;;;;5113531;27;20201;-80
2021/04/21 12:08:10;;;;;;;0.60;0.60;;;11.60;99.90;;;;;;5129023;27;20205;-80
2021/04/21 12:10:41;;;;;;;0.60;0.60;;;11.50;99.90;;;;;;5125671;27;20201;-79
2021/04/21 12:13:29;;;;;;;0.60;0.60;;;11.50;99.90;;;;;;5127934;27;20258;-79
2021/04/21 12:16:06;;;;;;;0.60;0.60;;;11.80;99.90;;;;;;5127218;27;20198;-79
2021/04/21 12:18:35;;;;;;;0.60;0.60;;;11.40;99.90;;;;;;5126523;27;20201;-80
2021/04/21 12:21:04;;;;;;;0.60;0.60;;;11.20;99.90;;;;;;5128755;27;20664;-79
2021/04/21 12:23:33;;;;;;;0.60;0.60;;;11.10;99.90;;;;;;5130076;27;20197;-79
2021/04/21 12:26:01;;;;;;;0.60;0.60;;;11.30;99.90;;;;;;5129286;27;20217;-80
2021/04/21 12:28:27;;;;;;;0.60;0.60;;;11.40;99.90;;;;;;5126009;27;20206;-79
2021/04/21 12:30:56;;;;;;;0.60;0.60;;;11.20;99.90;;;;;;5127781;27;20209;-80
2021/04/21 12:33:22;;;;;;;0.60;0.60;;;11.40;99.90;;;;;;5124731;27;20275;-80
2021/04/21 12:35:52;;;;;;;0.52;0.52;;;11.40;99.90;;;;;;5124769;27;20205;-79
2021/04/21 12:38:29;;;;;;;0.55;0.55;;;11.50;99.90;;;;;;5125724;27;20224;-79
2021/04/21 12:40:56;;;;;;;0.60;0.60;;;11.40;99.90;;;;;;5124881;27;20726;-79
2021/04/21 12:43:27;;;;;;;0.60;0.60;;;11.40;99.90;;;;;;5121446;27;20194;-79
2021/04/21 12:45:53;;;;;;;0.60;0.60;;;11.70;99.90;;;;;;5125190;27;20193;-79
2021/04/21 12:48:25;;;;;;;0.60;0.60;;;11.80;99.90;;;;;;5127952;27;20234;-79
2021/04/21 12:50:53;;;;;;;0.60;0.60;;;11.50;99.90;;;;;;5122113;27;20209;-79
2021/04/21 12:53:21;;;;;;;0.60;0.60;;;11.50;99.90;;;;;;5113742;27;20226;-82
2021/04/21 12:55:49;;;;;;;0.50;0.50;;;11.50;99.90;;;;;;5120496;27;20206;-82
2021/04/21 12:58:35;;;;;;;0.50;0.50;;;11.50;99.90;;;;;;5103187;28;20205;-82
2021/04/21 13:01:10;;;;;;;0.60;0.60;;;11.70;99.90;;;;;;5104880;28;20236;-82
2021/04/21 13:03:36;;;;;;;0.60;0.60;;;11.60;99.90;;;;;;5105725;28;20202;-82
2021/04/21 13:06:02;;;;;;;0.60;0.60;;;11.70;99.90;;;;;;5107008;28;20199;-82
2021/04/21 13:08:30;;;;;;;0.50;0.50;;;11.50;99.90;;;;;;5111305;28;20668;-81
2021/04/21 13:10:58;;;;;;;0.60;0.60;;;11.50;99.90;;;;;;5106045;28;20205;-81
2021/04/21 13:13:27;;;;;;;0.60;0.60;;;11.50;99.90;;;;;;5106188;28;20699;-80
2021/04/21 13:15:55;;;;;;;0.60;0.60;;;11.70;99.90;;;;;;5105813;28;20210;-80
2021/04/21 13:18:21;;;;;;;0.60;0.60;;;11.80;99.90;;;;;;5105590;28;20202;-80